Gildford, Montana
Current Conditions -  °F | °C
As of 2:53 AM on Saturday 20 Dec 2014 (Local Time) from KHVR Reporting Station
Overcast Overcast  
Wind Chill: 26°   Ceiling: 9000
Heat Index: 36°   Visibility: 10mi
Dew Point: 29°   Wind: 17mph
Humidity: 76%   Direction: 220°SW
Pressure: 29.8"   Gusts: NA
Location:  48.56°N, 110.3°W
Report Text: KHVR 200953Z AUTO 22015KT 10SM OVC090 02/M02 A2980 RMK AO2 SLP115 T00221017
Loading
Personal Weather Stations






























Interactive Weather Map New forecast layout! Learn more

10-Day Weather Forecast

Advertisements
Track Severe Weather on mobile